sensor_id;sensor_type;location;lat;lon;timestamp;P1;durP1;ratioP1;P2;durP2;ratioP2
9188;SDS011;34313;50.780;6.084;2022-07-23T00:01:58;20.73;;;14.40;;
9188;SDS011;34313;50.780;6.084;2022-07-23T00:04:23;23.53;;;14.87;;
9188;SDS011;34313;50.780;6.084;2022-07-23T00:06:49;24.70;;;15.40;;
9188;SDS011;34313;50.780;6.084;2022-07-23T00:09:14;21.27;;;15.90;;
9188;SDS011;34313;50.780;6.084;2022-07-23T00:11:39;21.70;;;15.47;;
9188;SDS011;34313;50.780;6.084;2022-07-23T00:14:05;25.53;;;16.03;;
9188;SDS011;34313;50.780;6.084;2022-07-23T00:16:30;25.27;;;16.43;;
9188;SDS011;34313;50.780;6.084;2022-07-23T00:18:55;23.23;;;16.77;;
9188;SDS011;34313;50.780;6.084;2022-07-23T00:21:21;20.80;;;15.30;;
9188;SDS011;34313;50.780;6.084;2022-07-23T00:23:46;27.37;;;19.37;;
9188;SDS011;34313;50.780;6.084;2022-07-23T00:26:11;26.33;;;18.60;;
9188;SDS011;34313;50.780;6.084;2022-07-23T00:28:37;26.87;;;18.13;;
9188;SDS011;34313;50.780;6.084;2022-07-23T00:31:02;25.83;;;19.30;;
9188;SDS011;34313;50.780;6.084;2022-07-23T00:33:28;24.33;;;18.30;;
9188;SDS011;34313;50.780;6.084;2022-07-23T00:35:53;29.00;;;20.70;;
9188;SDS011;34313;50.780;6.084;2022-07-23T00:38:18;29.50;;;21.87;;
9188;SDS011;34313;50.780;6.084;2022-07-23T00:40:44;27.30;;;19.47;;
9188;SDS011;34313;50.780;6.084;2022-07-23T00:43:09;29.60;;;22.07;;
9188;SDS011;34313;50.780;6.084;2022-07-23T00:45:35;30.00;;;21.17;;
9188;SDS011;34313;50.780;6.084;2022-07-23T00:48:00;31.60;;;21.70;;
9188;SDS011;34313;50.780;6.084;2022-07-23T00:50:26;38.77;;;24.43;;
9188;SDS011;34313;50.780;6.084;2022-07-23T00:52:52;33.60;;;23.30;;
9188;SDS011;34313;50.780;6.084;2022-07-23T00:55:17;35.57;;;24.37;;
9188;SDS011;34313;50.780;6.084;2022-07-23T00:57:43;40.47;;;25.00;;
9188;SDS011;34313;50.780;6.084;2022-07-23T01:00:12;39.93;;;26.30;;
9188;SDS011;34313;50.780;6.084;2022-07-23T01:02:39;33.63;;;24.33;;
9188;SDS011;34313;50.780;6.084;2022-07-23T01:05:05;42.47;;;27.90;;
9188;SDS011;34313;50.780;6.084;2022-07-23T01:07:31;41.00;;;26.77;;
9188;SDS011;34313;50.780;6.084;2022-07-23T01:09:58;37.13;;;25.70;;
9188;SDS011;34313;50.780;6.084;2022-07-23T01:12:24;45.90;;;29.27;;
9188;SDS011;34313;50.780;6.084;2022-07-23T01:14:59;42.30;;;28.33;;
9188;SDS011;34313;50.780;6.084;2022-07-23T01:17:25;47.53;;;29.33;;
9188;SDS011;34313;50.780;6.084;2022-07-23T01:19:51;44.73;;;28.93;;
9188;SDS011;34313;50.780;6.084;2022-07-23T01:22:17;43.10;;;26.93;;
9188;SDS011;34313;50.780;6.084;2022-07-23T01:24:44;40.60;;;27.60;;
9188;SDS011;34313;50.780;6.084;2022-07-23T01:27:10;39.53;;;26.57;;
9188;SDS011;34313;50.780;6.084;2022-07-23T01:29:37;31.30;;;22.73;;
9188;SDS011;34313;50.780;6.084;2022-07-23T01:32:03;32.63;;;23.83;;
9188;SDS011;34313;50.780;6.084;2022-07-23T01:34:28;32.40;;;23.00;;
9188;SDS011;34313;50.780;6.084;2022-07-23T01:36:54;34.57;;;23.73;;
9188;SDS011;34313;50.780;6.084;2022-07-23T01:39:19;31.20;;;22.73;;
9188;SDS011;34313;50.780;6.084;2022-07-23T01:41:45;35.13;;;24.40;;
9188;SDS011;34313;50.780;6.084;2022-07-23T01:44:11;35.83;;;25.20;;
9188;SDS011;34313;50.780;6.084;2022-07-23T01:46:37;36.40;;;26.27;;
9188;SDS011;34313;50.780;6.084;2022-07-23T01:49:03;35.20;;;24.10;;
9188;SDS011;34313;50.780;6.084;2022-07-23T01:51:28;34.37;;;23.43;;
9188;SDS011;34313;50.780;6.084;2022-07-23T01:53:54;32.57;;;23.97;;
9188;SDS011;34313;50.780;6.084;2022-07-23T01:56:19;27.97;;;21.90;;
9188;SDS011;34313;50.780;6.084;2022-07-23T01:58:45;36.67;;;24.70;;
9188;SDS011;34313;50.780;6.084;2022-07-23T02:01:12;38.17;;;25.67;;
9188;SDS011;34313;50.780;6.084;2022-07-23T02:03:37;42.77;;;24.27;;
9188;SDS011;34313;50.780;6.084;2022-07-23T02:06:02;33.80;;;23.57;;
9188;SDS011;34313;50.780;6.084;2022-07-23T02:08:28;39.23;;;25.13;;
9188;SDS011;34313;50.780;6.084;2022-07-23T02:10:53;32.07;;;24.60;;
9188;SDS011;34313;50.780;6.084;2022-07-23T02:13:18;37.10;;;24.90;;
9188;SDS011;34313;50.780;6.084;2022-07-23T02:15:45;35.87;;;25.83;;
9188;SDS011;34313;50.780;6.084;2022-07-23T02:18:11;39.47;;;25.33;;
9188;SDS011;34313;50.780;6.084;2022-07-23T02:20:36;39.10;;;25.50;;
9188;SDS011;34313;50.780;6.084;2022-07-23T02:23:03;42.57;;;28.53;;
9188;SDS011;34313;50.780;6.084;2022-07-23T02:25:29;39.70;;;26.80;;
9188;SDS011;34313;50.780;6.084;2022-07-23T02:27:54;49.90;;;28.10;;
9188;SDS011;34313;50.780;6.084;2022-07-23T02:30:20;44.17;;;27.97;;
9188;SDS011;34313;50.780;6.084;2022-07-23T02:32:45;40.23;;;28.27;;
9188;SDS011;34313;50.780;6.084;2022-07-23T02:35:11;41.57;;;28.37;;
9188;SDS011;34313;50.780;6.084;2022-07-23T02:37:36;42.23;;;28.43;;
9188;SDS011;34313;50.780;6.084;2022-07-23T02:40:02;40.67;;;27.57;;
9188;SDS011;34313;50.780;6.084;2022-07-23T02:42:27;40.50;;;26.67;;
9188;SDS011;34313;50.780;6.084;2022-07-23T02:44:52;42.77;;;28.63;;
9188;SDS011;34313;50.780;6.084;2022-07-23T02:47:18;39.20;;;27.73;;
9188;SDS011;34313;50.780;6.084;2022-07-23T02:49:43;39.90;;;27.43;;
9188;SDS011;34313;50.780;6.084;2022-07-23T02:52:09;39.70;;;29.10;;
9188;SDS011;34313;50.780;6.084;2022-07-23T02:54:35;44.17;;;27.77;;
9188;SDS011;34313;50.780;6.084;2022-07-23T02:57:01;47.37;;;29.67;;
9188;SDS011;34313;50.780;6.084;2022-07-23T02:59:26;50.27;;;29.27;;
9188;SDS011;34313;50.780;6.084;2022-07-23T03:01:52;45.43;;;31.03;;
9188;SDS011;34313;50.780;6.084;2022-07-23T03:04:17;47.77;;;29.30;;
9188;SDS011;34313;50.780;6.084;2022-07-23T03:06:43;52.00;;;30.30;;
9188;SDS011;34313;50.780;6.084;2022-07-23T03:09:08;47.17;;;30.03;;
9188;SDS011;34313;50.780;6.084;2022-07-23T03:11:34;50.60;;;30.17;;
9188;SDS011;34313;50.780;6.084;2022-07-23T03:13:59;49.80;;;31.27;;
9188;SDS011;34313;50.780;6.084;2022-07-23T03:16:24;43.90;;;30.60;;
9188;SDS011;34313;50.780;6.084;2022-07-23T03:18:50;45.00;;;30.67;;
9188;SDS011;34313;50.780;6.084;2022-07-23T03:21:15;51.20;;;31.70;;
9188;SDS011;34313;50.780;6.084;2022-07-23T03:23:40;42.17;;;29.73;;
9188;SDS011;34313;50.780;6.084;2022-07-23T03:26:06;47.87;;;31.40;;
9188;SDS011;34313;50.780;6.084;2022-07-23T03:28:31;51.33;;;31.27;;
9188;SDS011;34313;50.780;6.084;2022-07-23T03:30:57;46.33;;;29.97;;
9188;SDS011;34313;50.780;6.084;2022-07-23T03:33:22;48.93;;;32.40;;
9188;SDS011;34313;50.780;6.084;2022-07-23T03:35:48;44.57;;;30.07;;
9188;SDS011;34313;50.780;6.084;2022-07-23T03:38:13;44.93;;;29.07;;
9188;SDS011;34313;50.780;6.084;2022-07-23T03:40:39;45.90;;;29.00;;
9188;SDS011;34313;50.780;6.084;2022-07-23T03:43:05;49.83;;;30.07;;
9188;SDS011;34313;50.780;6.084;2022-07-23T03:45:30;46.23;;;30.57;;
9188;SDS011;34313;50.780;6.084;2022-07-23T03:47:56;44.10;;;29.07;;
9188;SDS011;34313;50.780;6.084;2022-07-23T03:50:22;43.53;;;29.27;;
9188;SDS011;34313;50.780;6.084;2022-07-23T03:52:47;45.70;;;29.50;;
9188;SDS011;34313;50.780;6.084;2022-07-23T03:55:13;51.40;;;28.50;;
9188;SDS011;34313;50.780;6.084;2022-07-23T03:57:38;48.10;;;30.07;;
9188;SDS011;34313;50.780;6.084;2022-07-23T04:00:04;50.60;;;32.10;;
9188;SDS011;34313;50.780;6.084;2022-07-23T04:02:33;56.50;;;30.57;;
9188;SDS011;34313;50.780;6.084;2022-07-23T04:04:59;49.53;;;32.07;;
9188;SDS011;34313;50.780;6.084;2022-07-23T04:07:25;48.23;;;30.47;;
9188;SDS011;34313;50.780;6.084;2022-07-23T04:09:51;55.23;;;34.30;;
9188;SDS011;34313;50.780;6.084;2022-07-23T04:12:16;53.53;;;32.07;;
9188;SDS011;34313;50.780;6.084;2022-07-23T04:14:41;49.40;;;31.83;;
9188;SDS011;34313;50.780;6.084;2022-07-23T04:17:07;52.90;;;33.07;;
9188;SDS011;34313;50.780;6.084;2022-07-23T04:19:32;52.70;;;32.00;;
9188;SDS011;34313;50.780;6.084;2022-07-23T04:21:58;50.20;;;31.87;;
9188;SDS011;34313;50.780;6.084;2022-07-23T04:24:23;54.77;;;32.23;;
9188;SDS011;34313;50.780;6.084;2022-07-23T04:26:49;54.17;;;33.03;;
9188;SDS011;34313;50.780;6.084;2022-07-23T04:29:14;59.60;;;34.90;;
9188;SDS011;34313;50.780;6.084;2022-07-23T04:31:39;57.63;;;34.43;;
9188;SDS011;34313;50.780;6.084;2022-07-23T04:34:05;56.20;;;32.97;;
9188;SDS011;34313;50.780;6.084;2022-07-23T04:36:30;62.43;;;33.07;;
9188;SDS011;34313;50.780;6.084;2022-07-23T04:38:56;49.53;;;32.93;;
9188;SDS011;34313;50.780;6.084;2022-07-23T04:41:21;49.57;;;31.00;;
9188;SDS011;34313;50.780;6.084;2022-07-23T04:43:46;45.90;;;30.50;;
9188;SDS011;34313;50.780;6.084;2022-07-23T04:46:12;49.43;;;30.80;;
9188;SDS011;34313;50.780;6.084;2022-07-23T04:48:38;45.10;;;28.57;;
9188;SDS011;34313;50.780;6.084;2022-07-23T04:51:04;43.80;;;27.80;;
9188;SDS011;34313;50.780;6.084;2022-07-23T04:53:29;44.50;;;28.20;;
9188;SDS011;34313;50.780;6.084;2022-07-23T04:55:55;38.07;;;26.07;;
9188;SDS011;34313;50.780;6.084;2022-07-23T04:58:23;26.20;;;20.33;;
9188;SDS011;34313;50.780;6.084;2022-07-23T05:00:49;29.23;;;22.40;;
9188;SDS011;34313;50.780;6.084;2022-07-23T05:03:14;30.73;;;21.47;;
9188;SDS011;34313;50.780;6.084;2022-07-23T05:05:40;28.27;;;20.13;;
9188;SDS011;34313;50.780;6.084;2022-07-23T05:08:06;29.10;;;18.37;;
9188;SDS011;34313;50.780;6.084;2022-07-23T05:10:31;24.73;;;18.57;;
9188;SDS011;34313;50.780;6.084;2022-07-23T05:12:56;26.33;;;18.83;;
9188;SDS011;34313;50.780;6.084;2022-07-23T05:15:22;24.27;;;18.93;;
9188;SDS011;34313;50.780;6.084;2022-07-23T05:17:48;22.47;;;18.40;;
9188;SDS011;34313;50.780;6.084;2022-07-23T05:20:13;26.97;;;19.40;;
9188;SDS011;34313;50.780;6.084;2022-07-23T05:22:39;24.60;;;18.20;;
9188;SDS011;34313;50.780;6.084;2022-07-23T05:25:05;28.70;;;20.13;;
9188;SDS011;34313;50.780;6.084;2022-07-23T05:27:31;26.13;;;17.80;;
9188;SDS011;34313;50.780;6.084;2022-07-23T05:29:57;26.03;;;20.30;;
9188;SDS011;34313;50.780;6.084;2022-07-23T05:32:22;25.73;;;19.00;;
9188;SDS011;34313;50.780;6.084;2022-07-23T05:34:48;25.87;;;19.97;;
9188;SDS011;34313;50.780;6.084;2022-07-23T05:37:14;28.17;;;20.03;;
9188;SDS011;34313;50.780;6.084;2022-07-23T05:39:39;34.47;;;22.50;;
9188;SDS011;34313;50.780;6.084;2022-07-23T05:42:05;27.87;;;20.30;;
9188;SDS011;34313;50.780;6.084;2022-07-23T05:44:30;35.80;;;21.70;;
9188;SDS011;34313;50.780;6.084;2022-07-23T05:46:55;28.67;;;19.70;;
9188;SDS011;34313;50.780;6.084;2022-07-23T05:49:21;27.07;;;18.20;;
9188;SDS011;34313;50.780;6.084;2022-07-23T05:51:46;22.27;;;16.70;;
9188;SDS011;34313;50.780;6.084;2022-07-23T05:54:12;22.77;;;16.93;;
9188;SDS011;34313;50.780;6.084;2022-07-23T05:56:37;23.07;;;16.60;;
9188;SDS011;34313;50.780;6.084;2022-07-23T05:59:02;20.47;;;14.70;;
9188;SDS011;34313;50.780;6.084;2022-07-23T06:01:28;18.30;;;13.40;;
9188;SDS011;34313;50.780;6.084;2022-07-23T06:03:53;24.43;;;16.27;;
9188;SDS011;34313;50.780;6.084;2022-07-23T06:06:19;19.60;;;14.20;;
9188;SDS011;34313;50.780;6.084;2022-07-23T06:08:44;19.60;;;15.37;;
9188;SDS011;34313;50.780;6.084;2022-07-23T06:11:09;13.60;;;11.00;;
9188;SDS011;34313;50.780;6.084;2022-07-23T06:13:35;17.10;;;13.05;;
9188;SDS011;34313;50.780;6.084;2022-07-23T06:16:01;19.50;;;14.55;;
9188;SDS011;34313;50.780;6.084;2022-07-23T06:18:26;20.65;;;16.70;;
9188;SDS011;34313;50.780;6.084;2022-07-23T06:20:51;15.15;;;13.50;;
9188;SDS011;34313;50.780;6.084;2022-07-23T06:23:17;15.02;;;12.88;;
9188;SDS011;34313;50.780;6.084;2022-07-23T06:25:42;16.08;;;14.05;;
9188;SDS011;34313;50.780;6.084;2022-07-23T06:28:08;11.75;;;10.38;;
9188;SDS011;34313;50.780;6.084;2022-07-23T06:30:33;20.77;;;16.67;;
9188;SDS011;34313;50.780;6.084;2022-07-23T06:32:58;15.60;;;13.65;;
9188;SDS011;34313;50.780;6.084;2022-07-23T06:35:24;16.98;;;13.18;;
9188;SDS011;34313;50.780;6.084;2022-07-23T06:37:50;17.45;;;14.50;;
9188;SDS011;34313;50.780;6.084;2022-07-23T06:40:15;18.10;;;15.10;;
9188;SDS011;34313;50.780;6.084;2022-07-23T06:42:40;16.87;;;15.10;;
9188;SDS011;34313;50.780;6.084;2022-07-23T06:45:06;19.50;;;14.93;;
9188;SDS011;34313;50.780;6.084;2022-07-23T06:47:33;19.33;;;15.70;;
9188;SDS011;34313;50.780;6.084;2022-07-23T06:49:58;17.50;;;15.70;;
9188;SDS011;34313;50.780;6.084;2022-07-23T06:52:24;18.50;;;14.50;;
9188;SDS011;34313;50.780;6.084;2022-07-23T06:54:51;20.00;;;17.47;;
9188;SDS011;34313;50.780;6.084;2022-07-23T06:57:16;22.90;;;18.00;;
9188;SDS011;34313;50.780;6.084;2022-07-23T06:59:42;17.50;;;12.67;;
9188;SDS011;34313;50.780;6.084;2022-07-23T07:02:07;21.20;;;15.53;;
9188;SDS011;34313;50.780;6.084;2022-07-23T07:04:33;17.40;;;15.40;;
9188;SDS011;34313;50.780;6.084;2022-07-23T07:06:58;20.23;;;17.83;;
9188;SDS011;34313;50.780;6.084;2022-07-23T07:09:23;19.40;;;16.70;;
9188;SDS011;34313;50.780;6.084;2022-07-23T07:11:49;21.37;;;16.77;;
9188;SDS011;34313;50.780;6.084;2022-07-23T07:14:15;18.67;;;16.13;;
9188;SDS011;34313;50.780;6.084;2022-07-23T07:16:40;20.93;;;17.03;;
9188;SDS011;34313;50.780;6.084;2022-07-23T07:19:06;23.60;;;17.53;;
9188;SDS011;34313;50.780;6.084;2022-07-23T07:21:31;12.10;;;10.63;;
9188;SDS011;34313;50.780;6.084;2022-07-23T07:23:57;12.40;;;10.90;;
9188;SDS011;34313;50.780;6.084;2022-07-23T07:26:22;13.43;;;12.02;;
9188;SDS011;34313;50.780;6.084;2022-07-23T07:28:47;12.50;;;10.10;;
9188;SDS011;34313;50.780;6.084;2022-07-23T07:31:13;18.13;;;12.18;;
9188;SDS011;34313;50.780;6.084;2022-07-23T07:33:38;16.73;;;13.25;;
9188;SDS011;34313;50.780;6.084;2022-07-23T07:36:04;15.10;;;11.55;;
9188;SDS011;34313;50.780;6.084;2022-07-23T07:38:29;15.80;;;11.30;;
9188;SDS011;34313;50.780;6.084;2022-07-23T07:40:55;12.38;;;10.55;;
9188;SDS011;34313;50.780;6.084;2022-07-23T07:43:20;11.73;;;8.57;;
9188;SDS011;34313;50.780;6.084;2022-07-23T07:45:46;9.40;;;8.30;;
9188;SDS011;34313;50.780;6.084;2022-07-23T07:48:11;14.00;;;10.95;;
9188;SDS011;34313;50.780;6.084;2022-07-23T07:50:36;11.93;;;9.77;;
9188;SDS011;34313;50.780;6.084;2022-07-23T07:53:02;7.95;;;6.97;;
9188;SDS011;34313;50.780;6.084;2022-07-23T07:55:27;11.75;;;10.55;;
9188;SDS011;34313;50.780;6.084;2022-07-23T07:57:53;11.85;;;10.52;;
9188;SDS011;34313;50.780;6.084;2022-07-23T08:00:19;7.85;;;6.57;;
9188;SDS011;34313;50.780;6.084;2022-07-23T08:02:45;8.27;;;5.93;;
9188;SDS011;34313;50.780;6.084;2022-07-23T08:05:18;10.30;;;8.20;;
9188;SDS011;34313;50.780;6.084;2022-07-23T08:07:45;10.77;;;9.73;;
9188;SDS011;34313;50.780;6.084;2022-07-23T08:10:11;7.00;;;6.28;;
9188;SDS011;34313;50.780;6.084;2022-07-23T08:12:47;10.57;;;9.57;;
9188;SDS011;34313;50.780;6.084;2022-07-23T08:15:16;9.32;;;8.07;;
9188;SDS011;34313;50.780;6.084;2022-07-23T08:17:43;10.27;;;9.13;;
9188;SDS011;34313;50.780;6.084;2022-07-23T08:20:10;12.00;;;7.93;;
9188;SDS011;34313;50.780;6.084;2022-07-23T08:25:21;9.30;;;7.80;;
9188;SDS011;34313;50.780;6.084;2022-07-23T08:27:51;11.55;;;8.80;;
9188;SDS011;34313;50.780;6.084;2022-07-23T08:30:17;11.60;;;8.75;;
9188;SDS011;34313;50.780;6.084;2022-07-23T08:35:47;9.45;;;7.70;;
9188;SDS011;34313;50.780;6.084;2022-07-23T08:38:15;8.18;;;7.40;;
9188;SDS011;34313;50.780;6.084;2022-07-23T08:40:45;10.15;;;8.52;;
9188;SDS011;34313;50.780;6.084;2022-07-23T08:43:17;9.27;;;6.35;;
9188;SDS011;34313;50.780;6.084;2022-07-23T08:45:45;9.73;;;8.27;;
9188;SDS011;34313;50.780;6.084;2022-07-23T08:48:13;9.52;;;8.52;;
9188;SDS011;34313;50.780;6.084;2022-07-23T08:50:44;11.35;;;9.20;;
9188;SDS011;34313;50.780;6.084;2022-07-23T08:53:13;8.55;;;7.60;;
9188;SDS011;34313;50.780;6.084;2022-07-23T08:55:40;7.75;;;5.95;;
9188;SDS011;34313;50.780;6.084;2022-07-23T08:58:08;9.05;;;8.15;;
9188;SDS011;34313;50.780;6.084;2022-07-23T09:00:34;11.32;;;9.25;;
9188;SDS011;34313;50.780;6.084;2022-07-23T09:02:59;8.85;;;8.05;;
9188;SDS011;34313;50.780;6.084;2022-07-23T09:05:25;13.25;;;9.85;;
9188;SDS011;34313;50.780;6.084;2022-07-23T09:10:52;9.90;;;7.55;;
9188;SDS011;34313;50.780;6.084;2022-07-23T09:16:20;11.35;;;8.00;;
9188;SDS011;34313;50.780;6.084;2022-07-23T09:18:51;11.63;;;9.57;;
9188;SDS011;34313;50.780;6.084;2022-07-23T09:21:19;9.95;;;8.00;;
9188;SDS011;34313;50.780;6.084;2022-07-23T09:24:12;11.60;;;9.18;;
9188;SDS011;34313;50.780;6.084;2022-07-23T09:26:42;8.35;;;7.55;;
9188;SDS011;34313;50.780;6.084;2022-07-23T09:31:46;9.52;;;7.35;;
9188;SDS011;34313;50.780;6.084;2022-07-23T09:34:19;11.48;;;10.38;;
9188;SDS011;34313;50.780;6.084;2022-07-23T09:37:12;9.35;;;7.43;;
9188;SDS011;34313;50.780;6.084;2022-07-23T09:39:39;13.05;;;6.75;;
9188;SDS011;34313;50.780;6.084;2022-07-23T09:42:12;8.68;;;6.70;;
9188;SDS011;34313;50.780;6.084;2022-07-23T09:44:46;8.25;;;6.50;;
9188;SDS011;34313;50.780;6.084;2022-07-23T09:47:14;7.72;;;6.68;;
9188;SDS011;34313;50.780;6.084;2022-07-23T09:49:40;10.50;;;8.23;;
9188;SDS011;34313;50.780;6.084;2022-07-23T09:52:05;14.18;;;8.45;;
9188;SDS011;34313;50.780;6.084;2022-07-23T09:54:38;8.70;;;7.03;;
9188;SDS011;34313;50.780;6.084;2022-07-23T09:57:12;9.73;;;7.70;;
9188;SDS011;34313;50.780;6.084;2022-07-23T09:59:44;8.23;;;7.50;;
9188;SDS011;34313;50.780;6.084;2022-07-23T10:02:13;12.48;;;9.18;;
9188;SDS011;34313;50.780;6.084;2022-07-23T10:04:39;10.35;;;7.80;;
9188;SDS011;34313;50.780;6.084;2022-07-23T10:07:07;13.83;;;8.70;;
9188;SDS011;34313;50.780;6.084;2022-07-23T10:09:39;12.60;;;8.27;;
9188;SDS011;34313;50.780;6.084;2022-07-23T10:12:09;9.30;;;7.97;;
9188;SDS011;34313;50.780;6.084;2022-07-23T10:14:36;8.57;;;7.67;;
9188;SDS011;34313;50.780;6.084;2022-07-23T10:17:03;9.70;;;7.23;;
9188;SDS011;34313;50.780;6.084;2022-07-23T10:19:30;9.77;;;7.70;;
9188;SDS011;34313;50.780;6.084;2022-07-23T10:22:03;6.67;;;5.87;;
9188;SDS011;34313;50.780;6.084;2022-07-23T10:27:33;9.97;;;7.83;;
9188;SDS011;34313;50.780;6.084;2022-07-23T10:30:06;9.23;;;7.77;;
9188;SDS011;34313;50.780;6.084;2022-07-23T10:38:30;8.27;;;6.23;;
9188;SDS011;34313;50.780;6.084;2022-07-23T10:41:02;8.23;;;7.10;;
9188;SDS011;34313;50.780;6.084;2022-07-23T10:43:32;7.13;;;5.03;;
9188;SDS011;34313;50.780;6.084;2022-07-23T10:46:20;6.60;;;4.03;;
9188;SDS011;34313;50.780;6.084;2022-07-23T10:54:42;6.07;;;4.27;;
9188;SDS011;34313;50.780;6.084;2022-07-23T10:57:14;5.30;;;3.60;;
9188;SDS011;34313;50.780;6.084;2022-07-23T11:02:34;4.30;;;3.37;;
9188;SDS011;34313;50.780;6.084;2022-07-23T11:05:03;4.47;;;3.73;;
9188;SDS011;34313;50.780;6.084;2022-07-23T11:07:30;4.57;;;2.90;;
9188;SDS011;34313;50.780;6.084;2022-07-23T11:09:56;4.27;;;3.53;;
9188;SDS011;34313;50.780;6.084;2022-07-23T11:15:09;5.27;;;3.90;;
9188;SDS011;34313;50.780;6.084;2022-07-23T11:25:07;5.40;;;4.00;;
9188;SDS011;34313;50.780;6.084;2022-07-23T11:27:39;4.77;;;2.80;;
9188;SDS011;34313;50.780;6.084;2022-07-23T11:30:06;3.10;;;2.80;;
9188;SDS011;34313;50.780;6.084;2022-07-23T11:32:34;5.10;;;3.90;;
9188;SDS011;34313;50.780;6.084;2022-07-23T11:35:25;3.43;;;3.07;;
9188;SDS011;34313;50.780;6.084;2022-07-23T11:37:53;2.97;;;2.70;;
9188;SDS011;34313;50.780;6.084;2022-07-23T11:40:27;4.27;;;3.70;;
9188;SDS011;34313;50.780;6.084;2022-07-23T11:42:57;3.60;;;3.03;;
9188;SDS011;34313;50.780;6.084;2022-07-23T11:45:26;3.57;;;3.23;;
9188;SDS011;34313;50.780;6.084;2022-07-23T11:47:56;6.53;;;3.53;;
9188;SDS011;34313;50.780;6.084;2022-07-23T11:50:22;3.80;;;3.10;;
9188;SDS011;34313;50.780;6.084;2022-07-23T11:52:48;4.50;;;2.90;;
9188;SDS011;34313;50.780;6.084;2022-07-23T11:55:14;3.60;;;3.23;;
9188;SDS011;34313;50.780;6.084;2022-07-23T11:57:41;4.77;;;2.67;;
9188;SDS011;34313;50.780;6.084;2022-07-23T12:00:08;3.03;;;2.83;;
9188;SDS011;34313;50.780;6.084;2022-07-23T12:02:39;3.50;;;2.50;;
9188;SDS011;34313;50.780;6.084;2022-07-23T12:05:06;5.87;;;3.70;;
9188;SDS011;34313;50.780;6.084;2022-07-23T12:07:43;3.60;;;3.30;;
9188;SDS011;34313;50.780;6.084;2022-07-23T12:10:17;3.33;;;3.03;;
9188;SDS011;34313;50.780;6.084;2022-07-23T12:15:14;4.03;;;3.30;;
9188;SDS011;34313;50.780;6.084;2022-07-23T12:17:42;4.70;;;3.17;;
9188;SDS011;34313;50.780;6.084;2022-07-23T12:20:12;3.00;;;2.80;;
9188;SDS011;34313;50.780;6.084;2022-07-23T12:22:40;6.03;;;2.73;;
9188;SDS011;34313;50.780;6.084;2022-07-23T12:25:15;5.40;;;3.03;;
9188;SDS011;34313;50.780;6.084;2022-07-23T12:27:42;5.10;;;3.47;;
9188;SDS011;34313;50.780;6.084;2022-07-23T12:33:07;5.53;;;3.40;;
9188;SDS011;34313;50.780;6.084;2022-07-23T12:35:35;4.63;;;3.30;;
9188;SDS011;34313;50.780;6.084;2022-07-23T12:38:06;3.10;;;2.50;;
9188;SDS011;34313;50.780;6.084;2022-07-23T12:43:08;3.80;;;3.07;;
9188;SDS011;34313;50.780;6.084;2022-07-23T12:51:15;4.47;;;3.37;;
9188;SDS011;34313;50.780;6.084;2022-07-23T12:53:42;4.07;;;3.33;;
9188;SDS011;34313;50.780;6.084;2022-07-23T12:56:11;6.80;;;3.47;;
9188;SDS011;34313;50.780;6.084;2022-07-23T13:03:56;4.30;;;3.90;;
9188;SDS011;34313;50.780;6.084;2022-07-23T13:06:37;4.37;;;3.30;;
9188;SDS011;34313;50.780;6.084;2022-07-23T13:09:04;4.50;;;3.33;;
9188;SDS011;34313;50.780;6.084;2022-07-23T13:11:31;4.53;;;3.60;;
9188;SDS011;34313;50.780;6.084;2022-07-23T13:13:57;5.77;;;3.60;;
9188;SDS011;34313;50.780;6.084;2022-07-23T13:16:25;4.07;;;3.67;;
9188;SDS011;34313;50.780;6.084;2022-07-23T13:18:51;4.43;;;3.33;;
9188;SDS011;34313;50.780;6.084;2022-07-23T13:21:17;6.13;;;4.30;;
9188;SDS011;34313;50.780;6.084;2022-07-23T13:23:42;4.43;;;4.00;;
9188;SDS011;34313;50.780;6.084;2022-07-23T13:26:08;3.93;;;3.53;;
9188;SDS011;34313;50.780;6.084;2022-07-23T13:28:33;4.77;;;3.10;;
9188;SDS011;34313;50.780;6.084;2022-07-23T13:30:58;4.93;;;3.67;;
9188;SDS011;34313;50.780;6.084;2022-07-23T13:33:24;4.73;;;3.80;;
9188;SDS011;34313;50.780;6.084;2022-07-23T13:35:50;7.13;;;4.07;;
9188;SDS011;34313;50.780;6.084;2022-07-23T13:38:17;4.13;;;3.73;;
9188;SDS011;34313;50.780;6.084;2022-07-23T13:40:44;4.17;;;3.77;;
9188;SDS011;34313;50.780;6.084;2022-07-23T13:43:12;6.50;;;4.67;;
9188;SDS011;34313;50.780;6.084;2022-07-23T13:45:39;5.53;;;3.27;;
9188;SDS011;34313;50.780;6.084;2022-07-23T13:48:05;4.17;;;3.77;;
9188;SDS011;34313;50.780;6.084;2022-07-23T13:50:32;8.00;;;3.50;;
9188;SDS011;34313;50.780;6.084;2022-07-23T13:53:05;3.90;;;3.53;;
9188;SDS011;34313;50.780;6.084;2022-07-23T13:55:32;5.37;;;3.80;;
9188;SDS011;34313;50.780;6.084;2022-07-23T13:57:59;5.47;;;4.00;;
9188;SDS011;34313;50.780;6.084;2022-07-23T14:00:25;4.93;;;4.30;;
9188;SDS011;34313;50.780;6.084;2022-07-23T14:02:52;5.30;;;4.30;;
9188;SDS011;34313;50.780;6.084;2022-07-23T14:05:18;5.90;;;3.07;;
9188;SDS011;34313;50.780;6.084;2022-07-23T14:07:44;6.83;;;3.90;;
9188;SDS011;34313;50.780;6.084;2022-07-23T14:10:12;3.60;;;2.93;;
9188;SDS011;34313;50.780;6.084;2022-07-23T14:12:38;5.40;;;2.90;;
9188;SDS011;34313;50.780;6.084;2022-07-23T14:15:04;10.60;;;4.67;;
9188;SDS011;34313;50.780;6.084;2022-07-23T14:17:31;6.87;;;4.10;;
9188;SDS011;34313;50.780;6.084;2022-07-23T14:19:57;3.57;;;3.20;;
9188;SDS011;34313;50.780;6.084;2022-07-23T14:22:23;3.47;;;3.17;;
9188;SDS011;34313;50.780;6.084;2022-07-23T14:24:48;4.53;;;3.17;;
9188;SDS011;34313;50.780;6.084;2022-07-23T14:27:14;4.30;;;3.50;;
9188;SDS011;34313;50.780;6.084;2022-07-23T14:29:40;3.57;;;2.93;;
9188;SDS011;34313;50.780;6.084;2022-07-23T14:32:06;8.83;;;5.03;;
9188;SDS011;34313;50.780;6.084;2022-07-23T14:34:31;4.47;;;3.50;;
9188;SDS011;34313;50.780;6.084;2022-07-23T14:36:57;6.37;;;4.20;;
9188;SDS011;34313;50.780;6.084;2022-07-23T14:39:23;4.90;;;3.50;;
9188;SDS011;34313;50.780;6.084;2022-07-23T14:41:49;3.30;;;2.90;;
9188;SDS011;34313;50.780;6.084;2022-07-23T14:44:14;4.30;;;3.47;;
9188;SDS011;34313;50.780;6.084;2022-07-23T14:46:40;5.47;;;3.40;;
9188;SDS011;34313;50.780;6.084;2022-07-23T14:49:05;3.33;;;2.93;;
9188;SDS011;34313;50.780;6.084;2022-07-23T14:51:31;5.20;;;4.23;;
9188;SDS011;34313;50.780;6.084;2022-07-23T14:53:56;5.00;;;3.80;;
9188;SDS011;34313;50.780;6.084;2022-07-23T14:56:21;7.83;;;5.40;;
9188;SDS011;34313;50.780;6.084;2022-07-23T14:58:47;6.80;;;4.70;;
9188;SDS011;34313;50.780;6.084;2022-07-23T15:01:12;4.07;;;3.40;;
9188;SDS011;34313;50.780;6.084;2022-07-23T15:03:38;6.60;;;3.37;;
9188;SDS011;34313;50.780;6.084;2022-07-23T15:06:04;3.47;;;3.17;;
9188;SDS011;34313;50.780;6.084;2022-07-23T15:08:30;3.60;;;3.17;;
9188;SDS011;34313;50.780;6.084;2022-07-23T15:10:55;3.73;;;3.40;;
9188;SDS011;34313;50.780;6.084;2022-07-23T15:13:21;11.27;;;6.40;;
9188;SDS011;34313;50.780;6.084;2022-07-23T15:15:46;8.60;;;5.97;;
9188;SDS011;34313;50.780;6.084;2022-07-23T15:18:12;5.20;;;3.43;;
9188;SDS011;34313;50.780;6.084;2022-07-23T15:20:37;4.07;;;3.30;;
9188;SDS011;34313;50.780;6.084;2022-07-23T15:23:03;5.70;;;3.57;;
9188;SDS011;34313;50.780;6.084;2022-07-23T15:25:32;3.10;;;2.80;;
9188;SDS011;34313;50.780;6.084;2022-07-23T15:27:58;3.03;;;2.83;;
9188;SDS011;34313;50.780;6.084;2022-07-23T15:30:24;3.57;;;3.23;;
9188;SDS011;34313;50.780;6.084;2022-07-23T15:32:51;5.97;;;5.00;;
9188;SDS011;34313;50.780;6.084;2022-07-23T15:35:16;3.73;;;2.90;;
9188;SDS011;34313;50.780;6.084;2022-07-23T15:37:42;3.93;;;3.53;;
9188;SDS011;34313;50.780;6.084;2022-07-23T15:40:08;7.37;;;3.53;;
9188;SDS011;34313;50.780;6.084;2022-07-23T15:42:34;5.07;;;3.63;;
9188;SDS011;34313;50.780;6.084;2022-07-23T15:45:00;7.07;;;3.57;;